createdAt,value
2022-08-03T00:01:29.059Z,21.9
2022-08-03T00:03:34.565Z,21.9
2022-08-03T00:05:32.140Z,21.8
2022-08-03T00:07:29.686Z,21.8
2022-08-03T00:09:27.288Z,21.7
2022-08-03T00:11:24.832Z,21.7
2022-08-03T00:13:22.396Z,21.7
2022-08-03T00:15:19.975Z,21.7
2022-08-03T00:17:25.479Z,21.7
2022-08-03T00:19:23.064Z,21.6
2022-08-03T00:21:20.625Z,21.7
2022-08-03T00:23:18.189Z,21.6
2022-08-03T00:25:15.763Z,21.5
2022-08-03T00:29:10.912Z,21.6
2022-08-03T00:31:16.452Z,21.5
2022-08-03T00:33:14.000Z,21.5
2022-08-03T00:35:18.063Z,21.6
2022-08-03T00:37:09.142Z,21.5
2022-08-03T00:41:04.309Z,21.5
2022-08-03T00:43:01.863Z,21.4
2022-08-03T00:45:07.420Z,21.4
2022-08-03T00:49:02.639Z,21.4
2022-08-03T00:51:29.458Z,21.4
2022-08-03T00:55:24.582Z,21.3
2022-08-03T00:59:27.677Z,21.2
2022-08-03T01:01:25.307Z,21.2
2022-08-03T01:03:22.828Z,21.3
2022-08-03T01:05:20.421Z,21.3
2022-08-03T01:07:18.004Z,21.2
2022-08-03T01:09:15.582Z,21.1
2022-08-03T01:11:21.057Z,21.2
2022-08-03T01:14:03.447Z,21.2
2022-08-03T01:19:11.371Z,21
2022-08-03T01:21:08.974Z,21.1
2022-08-03T01:23:06.546Z,21
2022-08-03T01:25:12.052Z,21
2022-08-03T01:27:09.646Z,21.1
2022-08-03T01:33:03.340Z,20.9
2022-08-03T01:34:59.962Z,21.1
2022-08-03T01:36:57.557Z,20.9
2022-08-03T01:39:03.132Z,20.8
2022-08-03T01:41:00.666Z,20.9
2022-08-03T01:42:58.264Z,20.9
2022-08-03T01:44:30.012Z,20.8
2022-08-03T01:45:58.626Z,20.9
2022-08-03T01:47:56.196Z,20.9
2022-08-03T01:52:04.074Z,20.9
2022-08-03T01:53:56.870Z,20.9
2022-08-03T01:55:54.499Z,20.7
2022-08-03T01:58:05.965Z,20.7
2022-08-03T01:59:49.691Z,20.7
2022-08-03T02:02:28.276Z,20.7
2022-08-03T02:04:00.020Z,20.7
2022-08-03T02:05:57.257Z,20.7
2022-08-03T02:07:47.955Z,20.7
2022-08-03T02:09:45.551Z,20.6
2022-08-03T02:11:43.132Z,20.6
2022-08-03T02:13:40.734Z,20.7
2022-08-03T02:15:38.304Z,20.7
2022-08-03T02:17:39.193Z,20.7
2022-08-03T02:21:57.272Z,20.6
2022-08-03T02:25:34.214Z,20.6
2022-08-03T02:27:31.801Z,20.5
2022-08-03T02:29:38.846Z,20.6
2022-08-03T02:31:26.987Z,20.6
2022-08-03T02:33:32.503Z,20.5
2022-08-03T02:35:30.129Z,20.5
2022-08-03T02:37:27.729Z,20.6
2022-08-03T02:38:30.486Z,20.4
2022-08-03T02:40:28.119Z,20.4
2022-08-03T02:44:23.293Z,20.5
2022-08-03T02:46:28.833Z,20.5
2022-08-03T02:48:26.429Z,20.4
2022-08-03T02:50:24.186Z,20.4
2022-08-03T02:52:21.693Z,20.4
2022-08-03T02:54:19.206Z,20.4
2022-08-03T02:56:16.806Z,20.5
2022-08-03T03:00:31.914Z,20.4
2022-08-03T03:02:17.896Z,20.3
2022-08-03T03:10:07.953Z,20.5
2022-08-03T03:12:05.614Z,20.5
2022-08-03T03:14:11.133Z,20.4
2022-08-03T03:16:08.733Z,20.4
2022-08-03T03:18:06.337Z,20.4
2022-08-03T03:20:03.905Z,20.5
2022-08-03T03:22:01.505Z,20.5
2022-08-03T03:23:59.105Z,20.4
2022-08-03T03:25:56.664Z,20.4
2022-08-03T03:28:02.231Z,20.4
2022-08-03T03:29:59.792Z,20.4
2022-08-03T03:31:57.413Z,20.3
2022-08-03T03:34:57.795Z,20.3
2022-08-03T03:36:55.390Z,20.3
2022-08-03T03:38:53.871Z,20.3
2022-08-03T03:40:58.535Z,20.4
2022-08-03T03:46:51.334Z,20.3
2022-08-03T03:48:48.926Z,20.3
2022-08-03T03:54:49.631Z,20.2
2022-08-03T03:56:47.465Z,20.3
2022-08-03T03:58:44.845Z,20.3
2022-08-03T04:00:42.510Z,20.2
2022-08-03T04:08:40.733Z,20.3
2022-08-03T04:10:38.346Z,20.3
2022-08-03T04:14:33.548Z,20.2
2022-08-03T04:16:31.145Z,20.3
2022-08-03T04:18:29.731Z,20.3
2022-08-03T04:20:26.283Z,20.3
2022-08-03T04:22:31.823Z,20.2
2022-08-03T04:24:29.430Z,20.4
2022-08-03T04:26:27.021Z,20.3
2022-08-03T04:30:47.792Z,20.3
2022-08-03T04:32:46.024Z,20.2
2022-08-03T04:34:50.924Z,20.2
2022-08-03T04:36:48.518Z,20.3
2022-08-03T04:38:46.112Z,20.3
2022-08-03T04:42:41.311Z,20.3
2022-08-03T04:44:39.782Z,20.3
2022-08-03T04:48:44.843Z,20.3
2022-08-03T04:52:39.639Z,20.3
2022-08-03T04:54:37.237Z,20.4
2022-08-03T04:56:34.828Z,20.4
2022-08-03T04:58:32.418Z,20.4
2022-08-03T05:00:30.030Z,20.5
2022-08-03T05:06:30.732Z,20.4
2022-08-03T05:08:28.491Z,20.5
2022-08-03T05:14:28.276Z,20.5
2022-08-03T05:16:26.668Z,20.6
2022-08-03T05:18:24.231Z,20.7
2022-08-03T05:20:21.828Z,20.6
2022-08-03T05:21:24.598Z,20.7
2022-08-03T05:23:22.178Z,20.7
2022-08-03T05:33:18.091Z,20.7
2022-08-03T05:36:01.622Z,20.7
2022-08-03T05:37:13.266Z,20.8
2022-08-03T05:39:10.859Z,20.7
2022-08-03T05:41:21.459Z,20.9
2022-08-03T05:43:13.946Z,20.9
2022-08-03T05:45:11.563Z,21
2022-08-03T05:49:06.780Z,20.8
2022-08-03T05:51:04.314Z,20.9
2022-08-03T05:53:01.880Z,21
2022-08-03T05:54:59.489Z,21
2022-08-03T05:57:04.995Z,20.9
2022-08-03T05:59:22.416Z,21.1
2022-08-03T06:01:00.185Z,21
2022-08-03T06:02:57.750Z,21.1
2022-08-03T06:04:55.372Z,21
2022-08-03T06:12:53.702Z,21.1
2022-08-03T06:15:53.996Z,21.2
2022-08-03T06:17:51.578Z,21.2
2022-08-03T06:19:49.180Z,21.2
2022-08-03T06:21:46.759Z,21.4
2022-08-03T06:25:49.830Z,21.4
2022-08-03T06:27:47.433Z,21.4
2022-08-03T06:29:45.020Z,21.3
2022-08-03T06:33:48.318Z,21.5
2022-08-03T06:35:37.754Z,21.5
2022-08-03T06:37:43.263Z,21.5
2022-08-03T06:41:44.558Z,21.6
2022-08-03T06:43:36.065Z,21.8
2022-08-03T06:45:33.565Z,21.9
2022-08-03T06:47:31.154Z,21.8
2022-08-03T06:49:28.793Z,21.7
2022-08-03T06:52:06.262Z,21.9
2022-08-03T06:53:31.808Z,22.1
2022-08-03T06:57:26.931Z,22.2
2022-08-03T07:00:06.060Z,22.3
2022-08-03T07:01:22.156Z,22.2
2022-08-03T07:03:19.649Z,22.1
2022-08-03T07:05:25.186Z,22.2
2022-08-03T07:07:22.778Z,22.2
2022-08-03T07:09:20.320Z,22.2
2022-08-03T07:16:15.734Z,22.6
2022-08-03T07:18:27.624Z,22.5
2022-08-03T07:20:18.797Z,22.5
2022-08-03T07:22:16.672Z,22.7
2022-08-03T07:24:13.890Z,22.7
2022-08-03T07:28:08.974Z,23
2022-08-03T07:30:06.525Z,22.9
2022-08-03T07:32:12.050Z,23.1
2022-08-03T07:34:09.578Z,23.2
2022-08-03T07:36:07.134Z,23.1
2022-08-03T07:38:04.685Z,23.4
2022-08-03T07:40:02.206Z,23.2
2022-08-03T07:41:59.728Z,23.4
2022-08-03T07:43:57.259Z,23.3
2022-08-03T07:46:02.784Z,23.5
2022-08-03T07:48:00.316Z,23.4
2022-08-03T07:51:55.385Z,23.5
2022-08-03T07:53:53.057Z,23.7
2022-08-03T07:55:50.415Z,23.8
2022-08-03T07:57:47.964Z,23.7
2022-08-03T07:59:58.677Z,23.7
2022-08-03T08:01:51.007Z,23.9
2022-08-03T08:03:53.495Z,24
2022-08-03T08:06:15.327Z,24.2
2022-08-03T08:14:13.454Z,24.2
2022-08-03T08:16:10.977Z,24.3
2022-08-03T08:20:06.023Z,24.5
2022-08-03T08:22:03.518Z,24.6
2022-08-03T08:24:01.034Z,24.6
2022-08-03T08:26:06.518Z,24.8
2022-08-03T08:28:31.677Z,24.8
2022-08-03T08:31:59.009Z,25
2022-08-03T08:34:04.723Z,25
2022-08-03T08:35:54.024Z,25.1
2022-08-03T08:39:56.981Z,25.4
2022-08-03T08:41:54.445Z,25.3
2022-08-03T08:45:49.432Z,25.4
2022-08-03T08:47:51.044Z,25.5
2022-08-03T08:49:58.377Z,25.7
2022-08-03T08:51:50.930Z,25.6
2022-08-03T08:53:47.310Z,25.6
2022-08-03T08:55:57.900Z,25.7
2022-08-03T08:57:43.396Z,25.8
2022-08-03T08:58:44.979Z,25.9
2022-08-03T09:02:39.912Z,26
2022-08-03T09:08:40.293Z,26.2
2022-08-03T09:10:37.765Z,26.2
2022-08-03T09:12:41.568Z,26.3
2022-08-03T09:14:32.647Z,26.3
2022-08-03T09:18:27.565Z,26.7
2022-08-03T09:24:40.603Z,26.7
2022-08-03T09:26:25.353Z,26.5
2022-08-03T09:34:23.092Z,26.8
2022-08-03T09:36:20.537Z,27.1
2022-08-03T09:40:15.401Z,27.1
2022-08-03T09:48:13.017Z,27.2
2022-08-03T09:50:10.789Z,27.3
2022-08-03T09:53:10.577Z,27.5
2022-08-03T09:55:07.989Z,27.7
2022-08-03T09:57:05.397Z,27.6
2022-08-03T09:59:02.848Z,27.7
2022-08-03T10:01:08.349Z,27.8
2022-08-03T10:03:05.680Z,27.9
2022-08-03T10:05:03.089Z,27.8
2022-08-03T10:07:00.463Z,27.7
2022-08-03T10:08:57.867Z,27.7
2022-08-03T10:10:55.266Z,27.8
2022-08-03T10:12:52.669Z,27.9
2022-08-03T10:14:58.058Z,27.9
2022-08-03T10:16:55.476Z,28
2022-08-03T10:18:52.863Z,27.9
2022-08-03T10:20:50.283Z,28.3
2022-08-03T10:22:47.691Z,28.3
2022-08-03T10:24:45.046Z,28.2
2022-08-03T10:26:49.808Z,28.4
2022-08-03T10:28:47.818Z,28.3
2022-08-03T10:30:46.775Z,28.2
2022-08-03T10:32:44.112Z,28.3
2022-08-03T10:36:38.859Z,28.7
2022-08-03T10:38:36.216Z,28.6
2022-08-03T10:40:47.975Z,28.9
2022-08-03T10:42:38.946Z,28.8
2022-08-03T10:44:36.324Z,28.8
2022-08-03T10:46:33.671Z,28.9
2022-08-03T10:47:36.368Z,29
2022-08-03T10:49:35.483Z,29
2022-08-03T10:53:28.432Z,29.4
2022-08-03T10:55:33.828Z,29.3
2022-08-03T11:01:25.900Z,29.6
2022-08-03T11:03:23.227Z,29.6
2022-08-03T11:05:20.575Z,29.9
2022-08-03T11:09:23.260Z,30
2022-08-03T11:11:20.593Z,30
2022-08-03T11:13:17.930Z,30.4
2022-08-03T11:15:15.247Z,30.6
2022-08-03T11:17:14.032Z,30.6
2022-08-03T11:19:09.887Z,30.6
2022-08-03T11:21:07.205Z,30.7
2022-08-03T11:23:12.521Z,30.9
2022-08-03T11:25:34.677Z,30.9
2022-08-03T11:27:07.208Z,30.8
2022-08-03T11:29:04.341Z,31
2022-08-03T11:32:58.847Z,31.4
2022-08-03T11:34:56.097Z,31.6
2022-08-03T11:37:01.375Z,31.6
2022-08-03T11:38:58.581Z,31.9
2022-08-03T11:40:55.805Z,32
2022-08-03T11:43:22.385Z,32
2022-08-03T11:53:16.320Z,32.3
2022-08-03T11:55:13.458Z,32.2
2022-08-03T11:57:10.603Z,32.4
2022-08-03T11:59:20.182Z,32.8
2022-08-03T12:01:04.861Z,32.9
2022-08-03T12:03:10.130Z,32.8
2022-08-03T12:05:07.153Z,32.8
2022-08-03T12:07:04.261Z,32.9
2022-08-03T12:09:01.344Z,32.5
2022-08-03T12:10:58.420Z,32.7
2022-08-03T12:12:55.502Z,32.8
2022-08-03T12:14:52.693Z,32.7
2022-08-03T12:16:57.701Z,33
2022-08-03T12:18:54.742Z,32.9
2022-08-03T12:20:51.810Z,32.9
2022-08-03T12:22:48.834Z,32.9
2022-08-03T12:24:47.077Z,33
2022-08-03T12:26:42.914Z,33.3
2022-08-03T12:28:44.976Z,33.5
2022-08-03T12:30:46.458Z,33.6
2022-08-03T12:32:42.082Z,33.5
2022-08-03T12:35:41.631Z,33.4
2022-08-03T12:37:38.631Z,33.7
2022-08-03T12:39:35.625Z,34
2022-08-03T12:41:34.226Z,34
2022-08-03T12:45:34.656Z,34.2
2022-08-03T12:47:31.629Z,34.2
2022-08-03T12:49:28.627Z,34.5
2022-08-03T12:51:25.525Z,34.6
2022-08-03T12:55:19.358Z,34.5
2022-08-03T12:59:21.295Z,35
2022-08-03T13:05:11.982Z,34.6
2022-08-03T13:07:12.715Z,34.7
2022-08-03T13:09:05.699Z,34.8
2022-08-03T13:11:10.721Z,34.6
2022-08-03T13:17:01.257Z,35.2
2022-08-03T13:18:58.147Z,35.3
2022-08-03T13:20:54.910Z,35.2
2022-08-03T13:22:51.739Z,35.2
2022-08-03T13:29:52.792Z,35.7
2022-08-03T13:31:50.535Z,35.4
2022-08-03T13:33:46.391Z,35.4
2022-08-03T13:35:43.201Z,35.4
2022-08-03T13:41:41.714Z,34.7
2022-08-03T13:43:38.581Z,35
2022-08-03T13:45:35.336Z,35.1
2022-08-03T13:47:32.150Z,35.3
2022-08-03T13:49:28.966Z,35.8
2022-08-03T13:51:33.904Z,35.5
2022-08-03T13:53:30.696Z,35.6
2022-08-03T13:58:04.432Z,35.9
2022-08-03T14:03:15.034Z,35.9
2022-08-03T14:05:19.630Z,35.9
2022-08-03T14:07:16.283Z,35.8
2022-08-03T14:09:13.053Z,36.2
2022-08-03T14:11:09.812Z,36.4
2022-08-03T14:13:06.645Z,37.3
2022-08-03T14:17:00.168Z,37.2
2022-08-03T14:19:05.210Z,37.4
2022-08-03T14:21:05.495Z,37.6
2022-08-03T14:22:58.515Z,37.3
2022-08-03T14:24:00.950Z,36.8
2022-08-03T14:25:57.734Z,36.6
2022-08-03T14:27:54.400Z,36.7
2022-08-03T14:32:12.052Z,36.5
2022-08-03T14:33:52.837Z,36.6
2022-08-03T14:35:49.597Z,36.4
2022-08-03T14:37:46.350Z,36.4
2022-08-03T14:40:00.462Z,36.8
2022-08-03T14:45:41.614Z,38
2022-08-03T14:50:36.346Z,38.4
2022-08-03T14:51:31.959Z,38.7
2022-08-03T14:53:28.732Z,37.6
2022-08-03T14:55:25.508Z,36.5
2022-08-03T14:57:22.337Z,35.7
2022-08-03T14:59:27.197Z,35.1
2022-08-03T15:02:04.628Z,35
2022-08-03T15:03:20.829Z,34.7
2022-08-03T15:05:17.641Z,34.7
2022-08-03T15:07:14.499Z,34.6
2022-08-03T15:09:23.445Z,34.7
2022-08-03T15:13:13.444Z,34.2
2022-08-03T15:15:10.200Z,34.1
2022-08-03T15:26:03.759Z,33.6
2022-08-03T15:31:13.833Z,33.4
2022-08-03T15:39:10.337Z,32.9
2022-08-03T15:41:08.769Z,33
2022-08-03T15:43:04.487Z,33.2
2022-08-03T15:45:01.596Z,33.3
2022-08-03T15:46:58.721Z,33.1
2022-08-03T15:50:53.021Z,32.6
2022-08-03T15:52:58.225Z,32.6
2022-08-03T15:56:52.557Z,32.5
2022-08-03T16:00:46.894Z,32.5
2022-08-03T16:04:41.249Z,32.4
2022-08-03T16:08:43.689Z,32.1
2022-08-03T16:10:42.455Z,32.2
2022-08-03T16:11:45.073Z,32.3
2022-08-03T16:14:12.930Z,32.1
2022-08-03T16:15:39.460Z,32.2
2022-08-03T16:19:42.059Z,31.8
2022-08-03T16:23:36.391Z,31.7
2022-08-03T16:25:33.614Z,31.8
2022-08-03T16:27:56.627Z,31.9
2022-08-03T16:29:28.076Z,31.8
2022-08-03T16:31:25.321Z,31.8
2022-08-03T16:33:30.588Z,31.7
2022-08-03T16:35:27.850Z,31.7
2022-08-03T16:37:37.687Z,31.8
2022-08-03T16:39:22.450Z,31.7
2022-08-03T16:41:19.570Z,31.6
2022-08-03T16:43:18.468Z,31.7
2022-08-03T16:45:14.061Z,31.6
2022-08-03T16:47:21.928Z,31.4
2022-08-03T16:49:54.092Z,31.5
2022-08-03T16:51:13.864Z,31.4
2022-08-03T16:55:08.360Z,31.6
2022-08-03T16:57:05.599Z,31.5
2022-08-03T16:59:02.922Z,31.4
2022-08-03T17:01:24.626Z,31.2
2022-08-03T17:03:19.083Z,31.2
2022-08-03T17:05:02.747Z,31.1
2022-08-03T17:06:05.346Z,31.3
2022-08-03T17:08:05.216Z,31.1
2022-08-03T17:11:57.165Z,30.9
2022-08-03T17:14:06.486Z,31
2022-08-03T17:16:01.812Z,30.9
2022-08-03T17:17:57.025Z,31.2
2022-08-03T17:19:55.342Z,31
2022-08-03T17:21:51.581Z,30.8
2022-08-03T17:31:49.605Z,30.5
2022-08-03T17:33:43.286Z,30.6
2022-08-03T17:35:40.607Z,30.4
2022-08-03T17:37:58.474Z,30.5
2022-08-03T17:39:57.773Z,30.4
2022-08-03T17:41:50.005Z,30.3
2022-08-03T17:44:14.443Z,30.5
2022-08-03T17:45:52.205Z,30.2
2022-08-03T17:47:42.055Z,30.1
2022-08-03T17:49:29.646Z,30.3
2022-08-03T17:51:26.945Z,30.3
2022-08-03T17:53:24.662Z,30.3
2022-08-03T17:57:27.188Z,30.1
2022-08-03T18:00:26.844Z,30.1
2022-08-03T18:02:30.518Z,30
2022-08-03T18:04:21.437Z,30.1
2022-08-03T18:06:27.945Z,30
2022-08-03T18:08:24.936Z,29.8
2022-08-03T18:14:16.913Z,29.9
2022-08-03T18:16:13.335Z,29.9
2022-08-03T18:22:13.323Z,29.7
2022-08-03T18:24:10.720Z,29.8
2022-08-03T18:26:12.278Z,29.9
2022-08-03T18:28:05.357Z,29.7
2022-08-03T18:30:02.750Z,29.7
2022-08-03T18:32:03.607Z,29.6
2022-08-03T18:34:16.387Z,29.4
2022-08-03T18:36:02.733Z,29.3
2022-08-03T18:38:01.065Z,29.4
2022-08-03T18:41:54.679Z,29.4
2022-08-03T18:44:07.092Z,29.4
2022-08-03T18:49:52.103Z,29
2022-08-03T18:54:02.952Z,29.2
2022-08-03T19:02:13.649Z,28.9
2022-08-03T19:08:05.653Z,28.9
2022-08-03T19:12:12.646Z,28.7
2022-08-03T19:13:57.745Z,28.8
2022-08-03T19:16:03.156Z,28.7
2022-08-03T19:19:57.936Z,28.7
2022-08-03T19:21:55.267Z,28.6
2022-08-03T19:23:52.797Z,28.6
2022-08-03T19:29:58.890Z,28.1
2022-08-03T19:35:51.678Z,28.2
2022-08-03T19:37:42.336Z,28.2
2022-08-03T19:41:42.114Z,27.9
2022-08-03T19:43:53.816Z,28.1
2022-08-03T19:46:05.199Z,28.1
2022-08-03T19:47:37.329Z,28
2022-08-03T19:48:40.055Z,28
2022-08-03T19:54:32.427Z,27.8
2022-08-03T19:58:35.066Z,27.7
2022-08-03T20:00:36.943Z,27.6
2022-08-03T20:04:27.298Z,27.6
2022-08-03T20:06:24.721Z,27.4
2022-08-03T20:08:22.146Z,27.4
2022-08-03T20:12:27.555Z,27.2
2022-08-03T20:14:26.538Z,27.3
2022-08-03T20:16:19.799Z,27.2
2022-08-03T20:18:17.262Z,27
2022-08-03T20:20:14.634Z,27.2
2022-08-03T20:22:14.300Z,26.9
2022-08-03T20:24:24.681Z,27
2022-08-03T20:26:14.966Z,26.9
2022-08-03T20:28:13.791Z,26.9
2022-08-03T20:30:09.757Z,26.8
2022-08-03T20:34:04.617Z,26.6
2022-08-03T20:36:02.072Z,26.7
2022-08-03T20:38:07.483Z,26.6
2022-08-03T20:40:04.971Z,26.5
2022-08-03T20:42:02.374Z,26.5
2022-08-03T20:43:05.122Z,26.5
2022-08-03T20:45:05.245Z,26.6
2022-08-03T20:47:00.889Z,26.5
2022-08-03T20:48:58.888Z,26.4
2022-08-03T20:53:02.714Z,26.2
2022-08-03T20:56:55.159Z,26.1
2022-08-03T20:58:52.621Z,26.2
2022-08-03T21:02:47.524Z,26.2
2022-08-03T21:04:52.951Z,26.2
2022-08-03T21:06:53.264Z,26
2022-08-03T21:08:48.117Z,26
2022-08-03T21:10:45.326Z,25.9
2022-08-03T21:12:42.785Z,25.9
2022-08-03T21:12:56.082Z,30
2022-08-03T21:14:40.220Z,25.8
2022-08-03T21:16:37.727Z,25.8
2022-08-03T21:18:43.179Z,25.9
2022-08-03T21:22:38.091Z,25.9
2022-08-03T21:24:35.554Z,25.8
2022-08-03T21:26:33.032Z,25.8
2022-08-03T21:30:27.960Z,25.6
2022-08-03T21:32:33.574Z,25.7
2022-08-03T21:34:30.861Z,25.5
2022-08-03T21:36:28.332Z,25.6
2022-08-03T21:41:25.964Z,25.5
2022-08-03T21:43:23.439Z,25.6
2022-08-03T21:45:28.875Z,25.5
2022-08-03T21:47:26.348Z,25.5
2022-08-03T21:49:52.010Z,25.3
2022-08-03T21:51:22.868Z,25.4
2022-08-03T21:57:15.254Z,25.2
2022-08-03T22:01:18.235Z,25.3
2022-08-03T22:03:17.824Z,25.2
2022-08-03T22:05:16.252Z,25.2
2022-08-03T22:07:10.639Z,25.2
2022-08-03T22:09:08.159Z,25.2
2022-08-03T22:11:05.643Z,25.2
2022-08-03T22:17:06.219Z,25.2
2022-08-03T22:19:03.555Z,25.2
2022-08-03T22:21:01.036Z,25
2022-08-03T22:22:58.508Z,25
2022-08-03T22:24:56.015Z,25
2022-08-03T22:27:01.513Z,25
2022-08-03T22:28:59.001Z,24.9
2022-08-03T22:30:56.457Z,24.9
2022-08-03T22:33:19.731Z,24.9
2022-08-03T22:35:17.268Z,24.9
2022-08-03T22:37:14.791Z,24.9
2022-08-03T22:39:25.639Z,24.8
2022-08-03T22:43:15.251Z,24.9
2022-08-03T22:46:06.818Z,24.8
2022-08-03T22:47:10.236Z,24.8
2022-08-03T22:49:07.735Z,24.6
2022-08-03T22:51:05.217Z,24.6
2022-08-03T22:53:10.713Z,24.5
2022-08-03T22:55:08.210Z,24.4
2022-08-03T22:57:05.698Z,24.5
2022-08-03T23:02:58.333Z,24.6
2022-08-03T23:04:55.679Z,24.4
2022-08-03T23:07:01.315Z,24.5
2022-08-03T23:08:58.662Z,24.5
2022-08-03T23:10:56.168Z,24.4
2022-08-03T23:12:53.641Z,24.4
2022-08-03T23:14:51.146Z,24.4
2022-08-03T23:16:48.647Z,24.5
2022-08-03T23:18:46.152Z,24.5
2022-08-03T23:20:51.658Z,24.2
2022-08-03T23:22:49.157Z,24.3
2022-08-03T23:24:46.624Z,24.4
2022-08-03T23:25:49.371Z,24.3
2022-08-03T23:31:43.121Z,24.3
2022-08-03T23:33:47.360Z,24.2
2022-08-03T23:36:22.700Z,24.1
2022-08-03T23:38:04.784Z,24.1
2022-08-03T23:43:44.992Z,24.1
2022-08-03T23:45:32.434Z,24.2
2022-08-03T23:49:35.420Z,24.2
2022-08-03T23:51:32.927Z,24.1
2022-08-03T23:53:30.439Z,24.2
2022-08-03T23:55:27.960Z,24.3
2022-08-03T23:57:25.467Z,24
2022-08-03T23:59:22.987Z,24.1
